Airfield :
LOGIN :

Register | Disclaimer

   EN    FR    IT 

 










Legend :    VFR   Marginal VFR   IFR   Intensive IFR   Very Intensive IFR
Visi :
Ceiling :
>= 8 km
>= 3000ft
5 to 8 km
1000 to 3000 ft
1500m to 5 km
500 to 1000 ft
800 to 1500m
200 to 500 ft
< 800m
< 200 ft
Symbols :   Thunderstorms  Fog  Heavy snow  Heavy precipitations  Wind > 20 kt
SIGMETs :     Misc.  Thunderstorms  Icing  Turbulence  Mountain Waves  Volcanic Ashes






- Airport Elevation : 19 ft
- IATA code : LCY


EGLC - London City

CURRENT METAR :
  • 050750Z AUTO 20008KT 170V240 9999 NCD 18/12 Q1008

EXPIRED METARs :
  • 050720Z AUTO 20008KT 170V240 9999 NCD 17/13 Q1008
  • 050650Z AUTO 22006G17KT 160V250 9999 NCD 16/13 Q1009
  • 050620Z AUTO 22005KT 200V260 9999 NCD 15/13 Q1009
  • 050550Z AUTO 24004KT 170V270 9999 NCD 14/13 Q1009
  • 050520Z AUTO VRB03KT 9999 NCD 14/12 Q1009

TAF TAF EGLC
Valid from the 05 at 06:00 until the 05 at 15:00 UTC


050459Z 0506/0515 20004KT 9999 SCT030
BECMG 0510/0513 18014KT
TEMPO 0514/0515 7000 RA SHRA BKN010
ATIS : +44 20 7646 0224



MET'MAP, your aeronautical weather chart ! - Copyright ORBIFLY December 2007 - Disclaimer

ORBIFLY MET'MAP TEAM :

Programming & Development : Alexandra Zaïnal
Concept & original design : Baudouin d'Aumeries
Assistance for programming : Marc-Olivier Méhu
Technical & hardware support : Manuel Goepfert

Contact : metmap@orbifly.com




SOURCES & CREDITS :

   NOAA